sensor_id;sensor_type;location;lat;lon;timestamp;P1;durP1;ratioP1;P2;durP2;ratioP2
51368;SDS011;37459;51.416;5.502;2022-11-30T00:00:48;67.32;;;32.63;;
51368;SDS011;37459;51.416;5.502;2022-11-30T00:03:15;67.25;;;33.67;;
51368;SDS011;37459;51.416;5.502;2022-11-30T00:05:41;73.38;;;34.15;;
51368;SDS011;37459;51.416;5.502;2022-11-30T00:08:08;65.30;;;33.25;;
51368;SDS011;37459;51.416;5.502;2022-11-30T00:10:34;70.53;;;34.10;;
51368;SDS011;37459;51.416;5.502;2022-11-30T00:13:02;73.25;;;33.17;;
51368;SDS011;37459;51.416;5.502;2022-11-30T00:15:29;67.22;;;32.50;;
51368;SDS011;37459;51.416;5.502;2022-11-30T00:17:57;65.85;;;32.05;;
51368;SDS011;37459;51.416;5.502;2022-11-30T00:20:24;71.95;;;33.15;;
51368;SDS011;37459;51.416;5.502;2022-11-30T00:22:53;70.00;;;33.40;;
51368;SDS011;37459;51.416;5.502;2022-11-30T00:25:20;66.57;;;32.72;;
51368;SDS011;37459;51.416;5.502;2022-11-30T00:27:46;69.60;;;33.15;;
51368;SDS011;37459;51.416;5.502;2022-11-30T00:30:13;68.20;;;33.72;;
51368;SDS011;37459;51.416;5.502;2022-11-30T00:32:40;69.68;;;33.35;;
51368;SDS011;37459;51.416;5.502;2022-11-30T00:35:08;72.93;;;33.03;;
51368;SDS011;37459;51.416;5.502;2022-11-30T00:37:35;64.65;;;31.75;;
51368;SDS011;37459;51.416;5.502;2022-11-30T00:40:01;67.38;;;33.60;;
51368;SDS011;37459;51.416;5.502;2022-11-30T00:42:28;65.13;;;32.42;;
51368;SDS011;37459;51.416;5.502;2022-11-30T00:44:54;63.03;;;32.08;;
51368;SDS011;37459;51.416;5.502;2022-11-30T00:47:21;71.63;;;32.92;;
51368;SDS011;37459;51.416;5.502;2022-11-30T00:49:47;70.32;;;34.10;;
51368;SDS011;37459;51.416;5.502;2022-11-30T00:52:15;67.10;;;33.47;;
51368;SDS011;37459;51.416;5.502;2022-11-30T00:54:42;66.90;;;31.88;;
51368;SDS011;37459;51.416;5.502;2022-11-30T00:57:08;63.72;;;33.35;;
51368;SDS011;37459;51.416;5.502;2022-11-30T00:59:35;65.97;;;33.05;;
51368;SDS011;37459;51.416;5.502;2022-11-30T01:02:02;69.63;;;33.35;;
51368;SDS011;37459;51.416;5.502;2022-11-30T01:04:28;70.18;;;33.10;;
51368;SDS011;37459;51.416;5.502;2022-11-30T01:06:55;72.00;;;33.42;;
51368;SDS011;37459;51.416;5.502;2022-11-30T01:09:23;70.07;;;34.25;;
51368;SDS011;37459;51.416;5.502;2022-11-30T01:11:49;68.00;;;33.17;;
51368;SDS011;37459;51.416;5.502;2022-11-30T01:14:16;73.15;;;33.55;;
51368;SDS011;37459;51.416;5.502;2022-11-30T01:16:42;65.57;;;32.90;;
51368;SDS011;37459;51.416;5.502;2022-11-30T01:19:09;68.05;;;32.83;;
51368;SDS011;37459;51.416;5.502;2022-11-30T01:21:35;69.07;;;33.92;;
51368;SDS011;37459;51.416;5.502;2022-11-30T01:24:02;70.18;;;34.63;;
51368;SDS011;37459;51.416;5.502;2022-11-30T01:26:30;64.25;;;32.70;;
51368;SDS011;37459;51.416;5.502;2022-11-30T01:28:56;70.55;;;32.80;;
51368;SDS011;37459;51.416;5.502;2022-11-30T01:31:23;68.15;;;33.50;;
51368;SDS011;37459;51.416;5.502;2022-11-30T01:33:50;69.85;;;34.08;;
51368;SDS011;37459;51.416;5.502;2022-11-30T01:36:19;75.15;;;34.80;;
51368;SDS011;37459;51.416;5.502;2022-11-30T01:38:47;68.90;;;33.58;;
51368;SDS011;37459;51.416;5.502;2022-11-30T01:41:16;73.60;;;34.63;;
51368;SDS011;37459;51.416;5.502;2022-11-30T01:43:47;69.45;;;33.97;;
51368;SDS011;37459;51.416;5.502;2022-11-30T01:46:19;73.53;;;33.70;;
51368;SDS011;37459;51.416;5.502;2022-11-30T01:48:53;62.45;;;31.95;;
51368;SDS011;37459;51.416;5.502;2022-11-30T01:51:25;64.93;;;32.60;;
51368;SDS011;37459;51.416;5.502;2022-11-30T01:53:54;71.00;;;32.97;;
51368;SDS011;37459;51.416;5.502;2022-11-30T01:56:21;71.18;;;32.88;;
51368;SDS011;37459;51.416;5.502;2022-11-30T01:58:49;63.15;;;31.42;;
51368;SDS011;37459;51.416;5.502;2022-11-30T02:01:16;63.20;;;31.30;;
51368;SDS011;37459;51.416;5.502;2022-11-30T02:03:44;66.93;;;31.52;;
51368;SDS011;37459;51.416;5.502;2022-11-30T02:06:15;67.82;;;32.60;;
51368;SDS011;37459;51.416;5.502;2022-11-30T02:08:43;63.05;;;30.75;;
51368;SDS011;37459;51.416;5.502;2022-11-30T02:11:10;59.40;;;29.92;;
51368;SDS011;37459;51.416;5.502;2022-11-30T02:13:40;56.90;;;29.65;;
51368;SDS011;37459;51.416;5.502;2022-11-30T02:16:21;56.85;;;30.05;;
51368;SDS011;37459;51.416;5.502;2022-11-30T02:18:54;62.33;;;30.75;;
51368;SDS011;37459;51.416;5.502;2022-11-30T02:21:31;58.08;;;29.58;;
51368;SDS011;37459;51.416;5.502;2022-11-30T02:24:20;57.63;;;29.63;;
51368;SDS011;37459;51.416;5.502;2022-11-30T02:27:06;52.88;;;28.50;;
51368;SDS011;37459;51.416;5.502;2022-11-30T02:29:41;54.88;;;28.70;;
51368;SDS011;37459;51.416;5.502;2022-11-30T02:32:13;55.50;;;29.50;;
51368;SDS011;37459;51.416;5.502;2022-11-30T02:34:44;58.58;;;27.67;;
51368;SDS011;37459;51.416;5.502;2022-11-30T02:37:13;48.33;;;26.63;;
51368;SDS011;37459;51.416;5.502;2022-11-30T02:39:42;50.17;;;26.75;;
51368;SDS011;37459;51.416;5.502;2022-11-30T02:42:09;47.67;;;25.77;;
51368;SDS011;37459;51.416;5.502;2022-11-30T02:44:37;49.88;;;26.90;;
51368;SDS011;37459;51.416;5.502;2022-11-30T02:47:11;45.42;;;25.20;;
51368;SDS011;37459;51.416;5.502;2022-11-30T02:49:45;46.00;;;24.83;;
51368;SDS011;37459;51.416;5.502;2022-11-30T02:52:17;46.45;;;25.85;;
51368;SDS011;37459;51.416;5.502;2022-11-30T02:54:46;46.92;;;26.20;;
51368;SDS011;37459;51.416;5.502;2022-11-30T02:57:13;40.25;;;24.13;;
51368;SDS011;37459;51.416;5.502;2022-11-30T02:59:39;44.33;;;25.17;;
51368;SDS011;37459;51.416;5.502;2022-11-30T03:02:06;41.42;;;24.23;;
51368;SDS011;37459;51.416;5.502;2022-11-30T03:04:34;42.92;;;24.38;;
51368;SDS011;37459;51.416;5.502;2022-11-30T03:07:00;39.25;;;23.75;;
51368;SDS011;37459;51.416;5.502;2022-11-30T03:09:27;41.97;;;23.63;;
51368;SDS011;37459;51.416;5.502;2022-11-30T03:11:54;43.63;;;23.80;;
51368;SDS011;37459;51.416;5.502;2022-11-30T03:14:20;43.97;;;24.05;;
51368;SDS011;37459;51.416;5.502;2022-11-30T03:16:47;42.78;;;22.65;;
51368;SDS011;37459;51.416;5.502;2022-11-30T03:19:13;39.65;;;22.45;;
51368;SDS011;37459;51.416;5.502;2022-11-30T03:21:41;43.25;;;23.00;;
51368;SDS011;37459;51.416;5.502;2022-11-30T03:24:07;38.40;;;22.85;;
51368;SDS011;37459;51.416;5.502;2022-11-30T03:26:34;39.70;;;23.75;;
51368;SDS011;37459;51.416;5.502;2022-11-30T03:29:01;38.72;;;22.15;;
51368;SDS011;37459;51.416;5.502;2022-11-30T03:31:27;36.60;;;22.05;;
51368;SDS011;37459;51.416;5.502;2022-11-30T03:33:54;35.90;;;21.65;;
51368;SDS011;37459;51.416;5.502;2022-11-30T03:36:21;36.42;;;22.90;;
51368;SDS011;37459;51.416;5.502;2022-11-30T03:38:48;36.97;;;22.15;;
51368;SDS011;37459;51.416;5.502;2022-11-30T03:41:15;42.50;;;22.55;;
51368;SDS011;37459;51.416;5.502;2022-11-30T03:43:42;39.25;;;21.88;;
51368;SDS011;37459;51.416;5.502;2022-11-30T03:46:09;36.90;;;21.98;;
51368;SDS011;37459;51.416;5.502;2022-11-30T03:48:36;36.47;;;22.75;;
51368;SDS011;37459;51.416;5.502;2022-11-30T03:51:05;35.97;;;22.05;;
51368;SDS011;37459;51.416;5.502;2022-11-30T03:53:32;36.35;;;22.13;;
51368;SDS011;37459;51.416;5.502;2022-11-30T03:56:00;39.45;;;22.45;;
51368;SDS011;37459;51.416;5.502;2022-11-30T03:58:29;36.67;;;22.20;;
51368;SDS011;37459;51.416;5.502;2022-11-30T04:00:59;34.30;;;21.85;;
51368;SDS011;37459;51.416;5.502;2022-11-30T04:03:27;34.72;;;21.27;;
51368;SDS011;37459;51.416;5.502;2022-11-30T04:05:54;37.78;;;22.25;;
51368;SDS011;37459;51.416;5.502;2022-11-30T04:08:21;35.53;;;21.63;;
51368;SDS011;37459;51.416;5.502;2022-11-30T04:10:49;36.53;;;21.98;;
51368;SDS011;37459;51.416;5.502;2022-11-30T04:13:17;33.80;;;20.88;;
51368;SDS011;37459;51.416;5.502;2022-11-30T04:15:44;32.45;;;20.88;;
51368;SDS011;37459;51.416;5.502;2022-11-30T04:18:11;30.38;;;20.38;;
51368;SDS011;37459;51.416;5.502;2022-11-30T04:20:38;33.83;;;21.10;;
51368;SDS011;37459;51.416;5.502;2022-11-30T04:23:05;32.03;;;20.27;;
51368;SDS011;37459;51.416;5.502;2022-11-30T04:25:31;33.22;;;21.10;;
51368;SDS011;37459;51.416;5.502;2022-11-30T04:27:58;34.97;;;21.30;;
51368;SDS011;37459;51.416;5.502;2022-11-30T04:30:25;33.03;;;20.83;;
51368;SDS011;37459;51.416;5.502;2022-11-30T04:32:52;33.97;;;20.73;;
51368;SDS011;37459;51.416;5.502;2022-11-30T04:35:18;36.00;;;20.35;;
51368;SDS011;37459;51.416;5.502;2022-11-30T04:37:45;32.10;;;21.45;;
51368;SDS011;37459;51.416;5.502;2022-11-30T04:40:12;32.17;;;20.35;;
51368;SDS011;37459;51.416;5.502;2022-11-30T04:42:38;33.17;;;20.98;;
51368;SDS011;37459;51.416;5.502;2022-11-30T04:45:06;33.55;;;21.27;;
51368;SDS011;37459;51.416;5.502;2022-11-30T04:47:34;34.00;;;20.85;;
51368;SDS011;37459;51.416;5.502;2022-11-30T04:50:01;31.48;;;20.98;;
51368;SDS011;37459;51.416;5.502;2022-11-30T04:52:27;36.92;;;22.17;;
51368;SDS011;37459;51.416;5.502;2022-11-30T04:54:54;33.25;;;20.73;;
51368;SDS011;37459;51.416;5.502;2022-11-30T04:57:21;30.77;;;20.35;;
51368;SDS011;37459;51.416;5.502;2022-11-30T04:59:47;35.53;;;21.17;;
51368;SDS011;37459;51.416;5.502;2022-11-30T05:02:14;35.80;;;21.52;;
51368;SDS011;37459;51.416;5.502;2022-11-30T05:04:43;33.05;;;20.55;;
51368;SDS011;37459;51.416;5.502;2022-11-30T05:07:09;32.47;;;21.10;;
51368;SDS011;37459;51.416;5.502;2022-11-30T05:09:36;36.35;;;21.90;;
51368;SDS011;37459;51.416;5.502;2022-11-30T05:12:02;34.22;;;21.30;;
51368;SDS011;37459;51.416;5.502;2022-11-30T05:14:29;33.50;;;20.55;;
51368;SDS011;37459;51.416;5.502;2022-11-30T05:16:55;32.13;;;21.25;;
51368;SDS011;37459;51.416;5.502;2022-11-30T05:19:22;35.25;;;21.85;;
51368;SDS011;37459;51.416;5.502;2022-11-30T05:21:50;35.53;;;20.77;;
51368;SDS011;37459;51.416;5.502;2022-11-30T05:24:17;34.47;;;20.10;;
51368;SDS011;37459;51.416;5.502;2022-11-30T05:26:43;34.85;;;21.15;;
51368;SDS011;37459;51.416;5.502;2022-11-30T05:29:10;36.30;;;21.88;;
51368;SDS011;37459;51.416;5.502;2022-11-30T05:31:36;36.85;;;21.05;;
51368;SDS011;37459;51.416;5.502;2022-11-30T05:34:03;33.75;;;21.33;;
51368;SDS011;37459;51.416;5.502;2022-11-30T05:36:30;33.10;;;21.35;;
51368;SDS011;37459;51.416;5.502;2022-11-30T05:38:58;36.00;;;22.10;;
51368;SDS011;37459;51.416;5.502;2022-11-30T05:41:24;35.97;;;21.15;;
51368;SDS011;37459;51.416;5.502;2022-11-30T05:43:51;31.55;;;18.77;;
51368;SDS011;37459;51.416;5.502;2022-11-30T05:46:17;34.50;;;21.55;;
51368;SDS011;37459;51.416;5.502;2022-11-30T05:48:44;38.00;;;23.77;;
51368;SDS011;37459;51.416;5.502;2022-11-30T05:51:11;35.15;;;21.83;;
51368;SDS011;37459;51.416;5.502;2022-11-30T05:53:39;32.83;;;19.90;;
51368;SDS011;37459;51.416;5.502;2022-11-30T05:56:08;34.80;;;20.92;;
51368;SDS011;37459;51.416;5.502;2022-11-30T05:58:36;33.40;;;20.17;;
51368;SDS011;37459;51.416;5.502;2022-11-30T06:01:03;34.10;;;21.27;;
51368;SDS011;37459;51.416;5.502;2022-11-30T06:03:31;33.00;;;20.55;;
51368;SDS011;37459;51.416;5.502;2022-11-30T06:05:58;32.15;;;19.45;;
51368;SDS011;37459;51.416;5.502;2022-11-30T06:08:25;34.45;;;20.75;;
51368;SDS011;37459;51.416;5.502;2022-11-30T06:10:52;32.35;;;20.13;;
51368;SDS011;37459;51.416;5.502;2022-11-30T06:13:20;31.05;;;19.65;;
51368;SDS011;37459;51.416;5.502;2022-11-30T06:15:47;29.05;;;18.92;;
51368;SDS011;37459;51.416;5.502;2022-11-30T06:18:13;29.15;;;19.38;;
51368;SDS011;37459;51.416;5.502;2022-11-30T06:20:40;33.88;;;20.67;;
51368;SDS011;37459;51.416;5.502;2022-11-30T06:23:06;30.00;;;19.25;;
51368;SDS011;37459;51.416;5.502;2022-11-30T06:25:33;31.15;;;20.33;;
51368;SDS011;37459;51.416;5.502;2022-11-30T06:27:59;30.58;;;19.98;;
51368;SDS011;37459;51.416;5.502;2022-11-30T06:30:27;31.60;;;19.92;;
51368;SDS011;37459;51.416;5.502;2022-11-30T06:32:54;32.50;;;19.63;;
51368;SDS011;37459;51.416;5.502;2022-11-30T06:35:20;28.80;;;19.42;;
51368;SDS011;37459;51.416;5.502;2022-11-30T06:37:47;29.65;;;20.02;;
51368;SDS011;37459;51.416;5.502;2022-11-30T06:40:13;31.00;;;20.05;;
51368;SDS011;37459;51.416;5.502;2022-11-30T06:42:41;33.17;;;19.30;;
51368;SDS011;37459;51.416;5.502;2022-11-30T06:45:08;29.45;;;19.63;;
51368;SDS011;37459;51.416;5.502;2022-11-30T06:47:36;33.70;;;18.98;;
51368;SDS011;37459;51.416;5.502;2022-11-30T06:50:03;28.80;;;19.02;;
51368;SDS011;37459;51.416;5.502;2022-11-30T06:52:32;29.30;;;19.08;;
51368;SDS011;37459;51.416;5.502;2022-11-30T06:54:59;29.02;;;18.60;;
51368;SDS011;37459;51.416;5.502;2022-11-30T06:57:26;32.00;;;19.50;;
51368;SDS011;37459;51.416;5.502;2022-11-30T06:59:53;29.05;;;18.98;;
51368;SDS011;37459;51.416;5.502;2022-11-30T07:02:19;32.53;;;19.02;;
51368;SDS011;37459;51.416;5.502;2022-11-30T07:04:47;32.08;;;18.58;;
51368;SDS011;37459;51.416;5.502;2022-11-30T07:07:14;28.83;;;19.25;;
51368;SDS011;37459;51.416;5.502;2022-11-30T07:09:41;29.50;;;18.52;;
51368;SDS011;37459;51.416;5.502;2022-11-30T07:12:08;32.65;;;18.70;;
51368;SDS011;37459;51.416;5.502;2022-11-30T07:14:34;31.85;;;19.00;;
51368;SDS011;37459;51.416;5.502;2022-11-30T07:17:01;31.00;;;19.92;;
51368;SDS011;37459;51.416;5.502;2022-11-30T07:19:28;31.42;;;18.52;;
51368;SDS011;37459;51.416;5.502;2022-11-30T07:21:56;29.90;;;19.23;;
51368;SDS011;37459;51.416;5.502;2022-11-30T07:24:23;31.67;;;19.77;;
51368;SDS011;37459;51.416;5.502;2022-11-30T07:27:06;31.55;;;19.48;;
51368;SDS011;37459;51.416;5.502;2022-11-30T07:29:34;35.97;;;20.83;;
51368;SDS011;37459;51.416;5.502;2022-11-30T07:32:00;31.13;;;19.90;;
51368;SDS011;37459;51.416;5.502;2022-11-30T07:34:27;31.50;;;19.88;;
51368;SDS011;37459;51.416;5.502;2022-11-30T07:36:53;32.58;;;19.58;;
51368;SDS011;37459;51.416;5.502;2022-11-30T07:39:21;34.28;;;20.77;;
51368;SDS011;37459;51.416;5.502;2022-11-30T07:41:49;31.13;;;20.80;;
51368;SDS011;37459;51.416;5.502;2022-11-30T07:44:16;31.58;;;19.88;;
51368;SDS011;37459;51.416;5.502;2022-11-30T07:46:42;32.88;;;20.00;;
51368;SDS011;37459;51.416;5.502;2022-11-30T07:49:09;33.30;;;20.10;;
51368;SDS011;37459;51.416;5.502;2022-11-30T07:51:36;34.55;;;20.08;;
51368;SDS011;37459;51.416;5.502;2022-11-30T07:54:03;39.25;;;21.92;;
51368;SDS011;37459;51.416;5.502;2022-11-30T07:56:31;40.45;;;22.67;;
51368;SDS011;37459;51.416;5.502;2022-11-30T07:58:59;37.20;;;20.85;;
51368;SDS011;37459;51.416;5.502;2022-11-30T08:01:27;37.00;;;21.25;;
51368;SDS011;37459;51.416;5.502;2022-11-30T08:03:55;35.75;;;20.27;;
51368;SDS011;37459;51.416;5.502;2022-11-30T08:06:22;33.33;;;20.85;;
51368;SDS011;37459;51.416;5.502;2022-11-30T08:08:51;33.53;;;21.48;;
51368;SDS011;37459;51.416;5.502;2022-11-30T08:11:19;35.28;;;21.05;;
51368;SDS011;37459;51.416;5.502;2022-11-30T08:13:49;34.00;;;21.17;;
51368;SDS011;37459;51.416;5.502;2022-11-30T08:16:17;32.72;;;20.13;;
51368;SDS011;37459;51.416;5.502;2022-11-30T08:18:45;33.50;;;20.42;;
51368;SDS011;37459;51.416;5.502;2022-11-30T08:21:13;37.75;;;22.42;;
51368;SDS011;37459;51.416;5.502;2022-11-30T08:23:41;36.72;;;21.88;;
51368;SDS011;37459;51.416;5.502;2022-11-30T08:26:10;39.22;;;21.95;;
51368;SDS011;37459;51.416;5.502;2022-11-30T08:28:38;33.90;;;20.98;;
51368;SDS011;37459;51.416;5.502;2022-11-30T08:31:07;37.50;;;22.95;;
51368;SDS011;37459;51.416;5.502;2022-11-30T08:33:35;39.85;;;22.52;;
51368;SDS011;37459;51.416;5.502;2022-11-30T08:36:06;38.83;;;23.40;;
51368;SDS011;37459;51.416;5.502;2022-11-30T08:38:33;43.20;;;25.17;;
51368;SDS011;37459;51.416;5.502;2022-11-30T08:40:59;41.00;;;25.05;;
51368;SDS011;37459;51.416;5.502;2022-11-30T08:43:26;40.97;;;25.27;;
51368;SDS011;37459;51.416;5.502;2022-11-30T08:45:53;41.17;;;24.52;;
51368;SDS011;37459;51.416;5.502;2022-11-30T08:48:21;41.78;;;23.90;;
51368;SDS011;37459;51.416;5.502;2022-11-30T08:50:47;40.17;;;24.02;;
51368;SDS011;37459;51.416;5.502;2022-11-30T08:53:14;38.25;;;23.00;;
51368;SDS011;37459;51.416;5.502;2022-11-30T08:55:40;37.28;;;23.77;;
51368;SDS011;37459;51.416;5.502;2022-11-30T08:58:07;37.70;;;23.33;;
51368;SDS011;37459;51.416;5.502;2022-11-30T09:00:33;39.15;;;23.60;;
51368;SDS011;37459;51.416;5.502;2022-11-30T09:03:00;39.08;;;24.60;;
51368;SDS011;37459;51.416;5.502;2022-11-30T09:05:28;40.88;;;25.13;;
51368;SDS011;37459;51.416;5.502;2022-11-30T09:07:54;42.10;;;25.40;;
51368;SDS011;37459;51.416;5.502;2022-11-30T09:10:21;41.97;;;25.30;;
51368;SDS011;37459;51.416;5.502;2022-11-30T09:12:48;41.58;;;24.70;;
51368;SDS011;37459;51.416;5.502;2022-11-30T09:15:14;39.53;;;25.33;;
51368;SDS011;37459;51.416;5.502;2022-11-30T09:17:41;40.58;;;24.70;;
51368;SDS011;37459;51.416;5.502;2022-11-30T09:20:07;41.30;;;24.48;;
51368;SDS011;37459;51.416;5.502;2022-11-30T09:22:36;40.88;;;23.85;;
51368;SDS011;37459;51.416;5.502;2022-11-30T09:25:02;38.10;;;23.80;;
51368;SDS011;37459;51.416;5.502;2022-11-30T09:27:30;40.00;;;24.40;;
51368;SDS011;37459;51.416;5.502;2022-11-30T09:29:57;39.67;;;25.23;;
51368;SDS011;37459;51.416;5.502;2022-11-30T09:32:23;40.28;;;25.02;;
51368;SDS011;37459;51.416;5.502;2022-11-30T09:34:50;38.03;;;25.23;;
51368;SDS011;37459;51.416;5.502;2022-11-30T09:37:16;42.65;;;25.48;;
51368;SDS011;37459;51.416;5.502;2022-11-30T09:39:44;37.42;;;24.27;;
51368;SDS011;37459;51.416;5.502;2022-11-30T09:42:20;40.35;;;25.35;;
51368;SDS011;37459;51.416;5.502;2022-11-30T09:44:54;40.22;;;24.38;;
51368;SDS011;37459;51.416;5.502;2022-11-30T09:50:34;41.17;;;25.60;;
51368;SDS011;37459;51.416;5.502;2022-11-30T09:53:05;39.90;;;25.13;;
51368;SDS011;37459;51.416;5.502;2022-11-30T09:55:41;47.33;;;26.73;;
51368;SDS011;37459;51.416;5.502;2022-11-30T09:58:10;42.78;;;25.30;;
51368;SDS011;37459;51.416;5.502;2022-11-30T10:00:46;44.25;;;25.98;;
51368;SDS011;37459;51.416;5.502;2022-11-30T10:03:13;42.47;;;25.60;;
51368;SDS011;37459;51.416;5.502;2022-11-30T10:05:41;43.30;;;25.88;;
51368;SDS011;37459;51.416;5.502;2022-11-30T10:08:19;44.22;;;25.92;;
51368;SDS011;37459;51.416;5.502;2022-11-30T10:11:00;47.40;;;25.83;;
51368;SDS011;37459;51.416;5.502;2022-11-30T10:13:41;42.80;;;26.10;;
51368;SDS011;37459;51.416;5.502;2022-11-30T10:16:19;46.25;;;26.88;;
51368;SDS011;37459;51.416;5.502;2022-11-30T10:18:58;43.63;;;27.27;;
51368;SDS011;37459;51.416;5.502;2022-11-30T10:21:42;39.60;;;25.35;;
51368;SDS011;37459;51.416;5.502;2022-11-30T10:27:15;43.00;;;24.52;;
51368;SDS011;37459;51.416;5.502;2022-11-30T10:29:43;44.75;;;25.98;;
51368;SDS011;37459;51.416;5.502;2022-11-30T10:32:11;41.55;;;26.13;;
51368;SDS011;37459;51.416;5.502;2022-11-30T10:34:43;26.35;;;15.63;;
51368;SDS011;37459;51.416;5.502;2022-11-30T10:37:15;36.85;;;18.40;;
51368;SDS011;37459;51.416;5.502;2022-11-30T10:39:46;38.53;;;23.50;;
51368;SDS011;37459;51.416;5.502;2022-11-30T10:42:21;37.33;;;24.02;;
51368;SDS011;37459;51.416;5.502;2022-11-30T10:44:55;35.75;;;23.65;;
51368;SDS011;37459;51.416;5.502;2022-11-30T10:47:26;37.53;;;23.80;;
51368;SDS011;37459;51.416;5.502;2022-11-30T10:49:57;38.72;;;23.95;;
51368;SDS011;37459;51.416;5.502;2022-11-30T10:52:25;34.90;;;23.27;;
51368;SDS011;37459;51.416;5.502;2022-11-30T10:54:54;39.10;;;24.63;;
51368;SDS011;37459;51.416;5.502;2022-11-30T10:57:23;36.97;;;24.40;;
51368;SDS011;37459;51.416;5.502;2022-11-30T10:59:54;38.22;;;24.33;;
51368;SDS011;37459;51.416;5.502;2022-11-30T11:02:33;35.55;;;23.45;;
51368;SDS011;37459;51.416;5.502;2022-11-30T11:05:10;36.53;;;22.67;;
51368;SDS011;37459;51.416;5.502;2022-11-30T11:07:44;33.95;;;22.38;;
51368;SDS011;37459;51.416;5.502;2022-11-30T11:10:15;33.30;;;21.77;;
51368;SDS011;37459;51.416;5.502;2022-11-30T11:12:46;30.98;;;20.45;;
51368;SDS011;37459;51.416;5.502;2022-11-30T11:15:16;34.00;;;21.65;;
51368;SDS011;37459;51.416;5.502;2022-11-30T11:17:45;30.73;;;19.98;;
51368;SDS011;37459;51.416;5.502;2022-11-30T11:20:28;32.53;;;21.35;;
51368;SDS011;37459;51.416;5.502;2022-11-30T11:22:57;34.35;;;21.50;;
51368;SDS011;37459;51.416;5.502;2022-11-30T11:25:24;28.30;;;19.52;;
51368;SDS011;37459;51.416;5.502;2022-11-30T11:28:00;29.63;;;19.58;;
51368;SDS011;37459;51.416;5.502;2022-11-30T11:30:32;30.58;;;19.73;;
51368;SDS011;37459;51.416;5.502;2022-11-30T11:33:01;29.73;;;19.67;;
51368;SDS011;37459;51.416;5.502;2022-11-30T11:35:30;31.60;;;20.80;;
51368;SDS011;37459;51.416;5.502;2022-11-30T11:37:59;30.95;;;20.67;;
51368;SDS011;37459;51.416;5.502;2022-11-30T11:40:26;29.83;;;20.70;;
51368;SDS011;37459;51.416;5.502;2022-11-30T11:42:53;32.20;;;20.77;;
51368;SDS011;37459;51.416;5.502;2022-11-30T11:45:24;34.70;;;21.25;;
51368;SDS011;37459;51.416;5.502;2022-11-30T11:47:59;33.85;;;22.15;;
51368;SDS011;37459;51.416;5.502;2022-11-30T11:50:28;32.78;;;21.77;;
51368;SDS011;37459;51.416;5.502;2022-11-30T11:53:12;31.77;;;20.40;;
51368;SDS011;37459;51.416;5.502;2022-11-30T11:55:47;34.83;;;21.58;;
51368;SDS011;37459;51.416;5.502;2022-11-30T11:58:17;31.50;;;21.30;;
51368;SDS011;37459;51.416;5.502;2022-11-30T12:00:53;36.08;;;22.35;;
51368;SDS011;37459;51.416;5.502;2022-11-30T12:03:22;32.95;;;21.58;;
51368;SDS011;37459;51.416;5.502;2022-11-30T12:05:57;35.92;;;22.88;;
51368;SDS011;37459;51.416;5.502;2022-11-30T12:08:29;36.45;;;23.52;;
51368;SDS011;37459;51.416;5.502;2022-11-30T12:11:03;33.63;;;22.35;;
51368;SDS011;37459;51.416;5.502;2022-11-30T12:13:36;35.83;;;23.15;;
51368;SDS011;37459;51.416;5.502;2022-11-30T12:16:11;36.42;;;23.88;;
51368;SDS011;37459;51.416;5.502;2022-11-30T12:18:49;31.45;;;17.40;;
51368;SDS011;37459;51.416;5.502;2022-11-30T12:21:24;26.08;;;16.48;;
51368;SDS011;37459;51.416;5.502;2022-11-30T12:24:13;31.52;;;20.33;;
51368;SDS011;37459;51.416;5.502;2022-11-30T12:26:52;31.95;;;21.38;;
51368;SDS011;37459;51.416;5.502;2022-11-30T12:29:26;32.00;;;21.17;;
51368;SDS011;37459;51.416;5.502;2022-11-30T12:32:08;33.95;;;22.17;;
51368;SDS011;37459;51.416;5.502;2022-11-30T12:34:52;31.20;;;20.70;;
51368;SDS011;37459;51.416;5.502;2022-11-30T12:37:29;34.42;;;21.95;;
51368;SDS011;37459;51.416;5.502;2022-11-30T12:40:12;33.13;;;21.88;;
51368;SDS011;37459;51.416;5.502;2022-11-30T12:42:51;35.63;;;23.15;;
51368;SDS011;37459;51.416;5.502;2022-11-30T12:45:27;36.13;;;23.40;;
51368;SDS011;37459;51.416;5.502;2022-11-30T12:48:02;33.45;;;22.80;;
51368;SDS011;37459;51.416;5.502;2022-11-30T12:50:42;39.92;;;27.35;;
51368;SDS011;37459;51.416;5.502;2022-11-30T12:53:18;34.00;;;23.35;;
51368;SDS011;37459;51.416;5.502;2022-11-30T12:55:52;31.70;;;21.92;;
51368;SDS011;37459;51.416;5.502;2022-11-30T12:58:24;34.80;;;21.25;;
51368;SDS011;37459;51.416;5.502;2022-11-30T13:01:04;32.67;;;21.88;;
51368;SDS011;37459;51.416;5.502;2022-11-30T13:03:44;34.33;;;21.60;;
51368;SDS011;37459;51.416;5.502;2022-11-30T13:06:16;32.70;;;22.27;;
51368;SDS011;37459;51.416;5.502;2022-11-30T13:08:48;31.33;;;21.17;;
51368;SDS011;37459;51.416;5.502;2022-11-30T13:11:23;29.58;;;20.77;;
51368;SDS011;37459;51.416;5.502;2022-11-30T13:13:55;29.23;;;20.00;;
51368;SDS011;37459;51.416;5.502;2022-11-30T13:16:24;28.75;;;19.15;;
51368;SDS011;37459;51.416;5.502;2022-11-30T13:18:54;28.60;;;18.48;;
51368;SDS011;37459;51.416;5.502;2022-11-30T13:21:25;29.20;;;19.67;;
51368;SDS011;37459;51.416;5.502;2022-11-30T13:23:58;27.58;;;19.30;;
51368;SDS011;37459;51.416;5.502;2022-11-30T13:26:32;26.98;;;18.15;;
51368;SDS011;37459;51.416;5.502;2022-11-30T13:29:12;25.10;;;17.00;;
51368;SDS011;37459;51.416;5.502;2022-11-30T13:31:47;27.70;;;18.25;;
51368;SDS011;37459;51.416;5.502;2022-11-30T13:34:25;25.58;;;17.25;;
51368;SDS011;37459;51.416;5.502;2022-11-30T13:37:00;27.17;;;18.55;;
51368;SDS011;37459;51.416;5.502;2022-11-30T13:39:30;26.67;;;18.02;;
51368;SDS011;37459;51.416;5.502;2022-11-30T13:42:14;28.42;;;20.52;;
51368;SDS011;37459;51.416;5.502;2022-11-30T13:44:57;28.35;;;19.55;;
51368;SDS011;37459;51.416;5.502;2022-11-30T13:47:30;26.27;;;18.13;;
51368;SDS011;37459;51.416;5.502;2022-11-30T13:50:00;28.15;;;17.52;;
51368;SDS011;37459;51.416;5.502;2022-11-30T13:55:44;25.60;;;17.25;;
51368;SDS011;37459;51.416;5.502;2022-11-30T13:58:17;26.25;;;16.63;;
51368;SDS011;37459;51.416;5.502;2022-11-30T14:00:46;28.77;;;17.45;;
51368;SDS011;37459;51.416;5.502;2022-11-30T14:03:26;27.85;;;17.25;;
51368;SDS011;37459;51.416;5.502;2022-11-30T14:05:55;27.80;;;16.75;;
51368;SDS011;37459;51.416;5.502;2022-11-30T14:08:32;27.63;;;17.80;;
51368;SDS011;37459;51.416;5.502;2022-11-30T14:17:08;27.67;;;17.95;;
51368;SDS011;37459;51.416;5.502;2022-11-30T14:19:38;26.80;;;17.95;;
51368;SDS011;37459;51.416;5.502;2022-11-30T14:22:10;25.75;;;17.65;;
51368;SDS011;37459;51.416;5.502;2022-11-30T14:24:39;25.30;;;16.88;;
51368;SDS011;37459;51.416;5.502;2022-11-30T14:27:09;25.45;;;18.17;;
51368;SDS011;37459;51.416;5.502;2022-11-30T14:29:41;25.30;;;16.80;;
51368;SDS011;37459;51.416;5.502;2022-11-30T14:32:09;27.80;;;17.98;;
51368;SDS011;37459;51.416;5.502;2022-11-30T14:34:41;24.48;;;16.67;;
51368;SDS011;37459;51.416;5.502;2022-11-30T14:37:13;28.52;;;18.25;;
51368;SDS011;37459;51.416;5.502;2022-11-30T14:39:45;25.17;;;17.75;;
51368;SDS011;37459;51.416;5.502;2022-11-30T14:42:17;24.73;;;16.52;;
51368;SDS011;37459;51.416;5.502;2022-11-30T14:44:46;24.88;;;16.65;;
51368;SDS011;37459;51.416;5.502;2022-11-30T14:47:14;26.20;;;16.58;;
51368;SDS011;37459;51.416;5.502;2022-11-30T14:49:46;25.05;;;16.52;;